createdAt,value
2018-07-22T00:00:20.735Z,20.08
2018-07-22T00:01:19.952Z,20.01
2018-07-22T00:02:19.998Z,20.02
2018-07-22T00:03:19.994Z,19.85
2018-07-22T00:04:20.022Z,19.93
2018-07-22T00:05:20.044Z,19.85
2018-07-22T00:06:20.068Z,19.89
2018-07-22T00:07:20.088Z,19.87
2018-07-22T00:08:20.116Z,19.79
2018-07-22T00:09:20.139Z,19.72
2018-07-22T00:10:20.158Z,19.74
2018-07-22T00:11:20.184Z,19.74
2018-07-22T00:12:20.207Z,19.68
2018-07-22T00:13:20.227Z,19.70
2018-07-22T00:14:20.254Z,19.70
2018-07-22T00:15:20.275Z,19.75
2018-07-22T00:17:13.055Z,19.78
2018-07-22T00:18:13.076Z,19.72
2018-07-22T00:19:13.099Z,19.72
2018-07-22T00:20:13.124Z,19.74
2018-07-22T00:21:13.144Z,19.71
2018-07-22T00:22:13.173Z,19.82
2018-07-22T00:23:13.194Z,19.90
2018-07-22T00:24:13.214Z,19.86
2018-07-22T00:25:13.240Z,19.92
2018-07-22T00:26:13.263Z,19.86
2018-07-22T00:27:13.286Z,19.79
2018-07-22T00:28:13.309Z,19.82
2018-07-22T00:29:14.481Z,19.87
2018-07-22T00:30:13.356Z,19.87
2018-07-22T00:31:13.380Z,19.89
2018-07-22T00:32:13.403Z,19.83
2018-07-22T00:33:13.425Z,19.89
2018-07-22T00:34:13.445Z,19.82
2018-07-22T00:35:13.468Z,19.87
2018-07-22T00:36:13.493Z,19.80
2018-07-22T00:37:13.511Z,19.72
2018-07-22T00:38:13.537Z,19.75
2018-07-22T00:39:13.556Z,19.72
2018-07-22T00:40:13.579Z,19.70
2018-07-22T00:41:13.601Z,19.71
2018-07-22T00:42:13.625Z,19.71
2018-07-22T00:43:13.645Z,19.70
2018-07-22T00:44:13.667Z,19.86
2018-07-22T00:45:13.694Z,19.86
2018-07-22T00:46:13.713Z,19.83
2018-07-22T00:47:13.733Z,19.89
2018-07-22T00:48:13.754Z,19.89
2018-07-22T00:50:13.800Z,19.95
2018-07-22T00:51:13.825Z,19.89
2018-07-22T00:52:13.846Z,19.89
2018-07-22T00:53:13.865Z,19.92
2018-07-22T00:54:13.889Z,19.90
2018-07-22T00:55:13.915Z,19.93
2018-07-22T00:56:13.935Z,19.86
2018-07-22T00:57:13.959Z,19.86
2018-07-22T00:58:13.980Z,19.89
2018-07-22T00:59:14.004Z,19.83
2018-07-22T01:00:14.078Z,19.87
2018-07-22T01:01:14.052Z,19.80
2018-07-22T01:02:14.073Z,19.83
2018-07-22T01:03:14.099Z,19.80
2018-07-22T01:04:14.118Z,19.82
2018-07-22T01:05:14.142Z,19.72
2018-07-22T01:06:14.166Z,19.71
2018-07-22T01:07:14.188Z,19.78
2018-07-22T01:08:14.210Z,19.71
2018-07-22T01:09:14.234Z,19.92
2018-07-22T01:10:14.258Z,19.87
2018-07-22T01:11:14.283Z,19.87
2018-07-22T01:12:14.307Z,19.89
2018-07-22T01:13:14.329Z,19.86
2018-07-22T01:14:14.356Z,19.82
2018-07-22T01:15:14.373Z,19.82
2018-07-22T01:16:14.399Z,19.79
2018-07-22T01:17:14.419Z,19.89
2018-07-22T01:18:14.447Z,19.70
2018-07-22T01:19:14.466Z,19.75
2018-07-22T01:20:14.489Z,19.61
2018-07-22T01:21:14.518Z,19.53
2018-07-22T01:22:14.538Z,19.56
2018-07-22T01:23:14.561Z,19.56
2018-07-22T01:24:14.586Z,19.52
2018-07-22T01:25:14.607Z,19.56
2018-07-22T01:26:14.631Z,19.55
2018-07-22T01:27:14.657Z,19.50
2018-07-22T01:28:14.676Z,19.50
2018-07-22T01:29:14.698Z,19.40
2018-07-22T01:30:14.728Z,19.37
2018-07-22T01:31:14.745Z,19.32
2018-07-22T01:32:14.767Z,19.31
2018-07-22T01:33:14.792Z,19.35
2018-07-22T01:34:14.817Z,19.37
2018-07-22T01:35:14.838Z,19.49
2018-07-22T01:36:14.860Z,19.57
2018-07-22T01:37:14.885Z,19.55
2018-07-22T01:38:14.911Z,19.61
2018-07-22T01:39:14.931Z,19.56
2018-07-22T01:40:14.956Z,19.61
2018-07-22T01:41:14.981Z,19.57
2018-07-22T01:42:15.003Z,19.63
2018-07-22T01:43:15.110Z,19.64
2018-07-22T01:44:15.049Z,19.63
2018-07-22T01:45:15.070Z,19.53
2018-07-22T01:46:15.093Z,19.56
2018-07-22T01:47:15.116Z,19.53
2018-07-22T01:48:15.138Z,19.57
2018-07-22T01:49:15.162Z,19.45
2018-07-22T01:50:15.186Z,19.55
2018-07-22T01:51:15.209Z,19.52
2018-07-22T01:52:15.231Z,19.53
2018-07-22T01:53:15.255Z,19.57
2018-07-22T01:54:15.279Z,19.49
2018-07-22T01:55:15.303Z,19.43
2018-07-22T01:56:15.327Z,19.45
2018-07-22T01:57:15.347Z,19.35
2018-07-22T01:58:15.374Z,19.24
2018-07-22T01:59:15.400Z,19.30
2018-07-22T02:00:15.422Z,19.20
2018-07-22T02:01:15.443Z,19.12
2018-07-22T02:02:15.463Z,19.09
2018-07-22T02:03:15.489Z,18.99
2018-07-22T02:04:15.509Z,19.05
2018-07-22T02:05:15.535Z,19.07
2018-07-22T02:06:15.557Z,18.91
2018-07-22T02:07:15.580Z,18.93
2018-07-22T02:08:15.602Z,18.93
2018-07-22T02:09:15.628Z,18.94
2018-07-22T02:10:15.651Z,18.93
2018-07-22T02:11:15.675Z,19.02
2018-07-22T02:12:15.714Z,18.93
2018-07-22T02:13:15.719Z,18.96
2018-07-22T02:14:15.744Z,19.00
2018-07-22T02:15:15.765Z,18.99
2018-07-22T02:16:15.786Z,19.02
2018-07-22T02:17:15.810Z,19.02
2018-07-22T02:18:15.833Z,18.94
2018-07-22T02:19:15.856Z,18.99
2018-07-22T02:20:15.879Z,19.12
2018-07-22T02:21:15.902Z,19.02
2018-07-22T02:22:15.927Z,19.05
2018-07-22T02:23:15.948Z,19.02
2018-07-22T02:24:15.973Z,19.00
2018-07-22T02:25:15.995Z,19.02
2018-07-22T02:26:16.017Z,18.96
2018-07-22T02:27:16.042Z,19.02
2018-07-22T02:28:16.063Z,19.00
2018-07-22T02:29:16.092Z,18.96
2018-07-22T02:30:16.113Z,18.94
2018-07-22T02:31:16.133Z,18.91
2018-07-22T02:32:16.157Z,18.82
2018-07-22T02:33:16.179Z,18.89
2018-07-22T02:34:16.201Z,18.81
2018-07-22T02:35:16.225Z,18.79
2018-07-22T02:36:16.247Z,18.65
2018-07-22T02:37:16.273Z,18.65
2018-07-22T02:38:16.301Z,18.72
2018-07-22T02:39:16.316Z,18.68
2018-07-22T02:40:16.339Z,18.66
2018-07-22T02:41:16.362Z,18.60
2018-07-22T02:42:16.389Z,18.60
2018-07-22T02:43:16.411Z,18.61
2018-07-22T02:44:16.431Z,18.54
2018-07-22T02:45:16.457Z,18.51
2018-07-22T02:46:16.481Z,18.59
2018-07-22T02:47:16.500Z,18.49
2018-07-22T02:48:16.523Z,18.51
2018-07-22T02:49:16.550Z,18.56
2018-07-22T02:50:16.572Z,18.53
2018-07-22T02:51:19.244Z,18.39
2018-07-22T02:52:17.830Z,18.51
2018-07-22T02:53:19.261Z,18.47
2018-07-22T02:54:16.659Z,18.49
2018-07-22T02:55:16.685Z,18.42
2018-07-22T02:56:16.704Z,18.51
2018-07-22T02:57:16.727Z,18.53
2018-07-22T02:58:16.756Z,18.61
2018-07-22T02:59:16.776Z,18.53
2018-07-22T03:00:16.795Z,18.63
2018-07-22T03:01:16.818Z,18.72
2018-07-22T03:02:16.841Z,18.63
2018-07-22T03:03:16.906Z,18.60
2018-07-22T03:04:16.889Z,18.71
2018-07-22T03:05:16.916Z,18.72
2018-07-22T03:06:16.933Z,18.63
2018-07-22T03:07:16.957Z,18.50
2018-07-22T03:08:16.978Z,18.61
2018-07-22T03:09:17.003Z,18.47
2018-07-22T03:10:17.024Z,18.57
2018-07-22T03:11:17.049Z,18.53
2018-07-22T03:12:17.072Z,18.51
2018-07-22T03:13:17.091Z,18.47
2018-07-22T03:14:17.115Z,18.53
2018-07-22T03:15:17.140Z,18.45
2018-07-22T03:16:17.162Z,18.38
2018-07-22T03:17:17.189Z,18.47
2018-07-22T03:18:17.209Z,18.36
2018-07-22T03:19:17.229Z,18.34
2018-07-22T03:20:17.252Z,18.34
2018-07-22T03:21:17.276Z,18.36
2018-07-22T03:22:17.297Z,18.34
2018-07-22T03:23:17.326Z,18.36
2018-07-22T03:24:17.342Z,18.31
2018-07-22T03:25:17.368Z,18.24
2018-07-22T03:26:17.388Z,18.29
2018-07-22T03:27:17.413Z,18.24
2018-07-22T03:28:17.435Z,18.27
2018-07-22T03:29:17.457Z,18.29
2018-07-22T03:30:17.481Z,18.17
2018-07-22T03:31:17.502Z,18.20
2018-07-22T03:32:17.526Z,18.13
2018-07-22T03:33:17.549Z,18.17
2018-07-22T03:34:17.575Z,18.14
2018-07-22T03:35:17.592Z,18.08
2018-07-22T03:36:17.617Z,18.11
2018-07-22T03:37:17.638Z,18.13
2018-07-22T03:38:17.664Z,18.19
2018-07-22T03:39:17.688Z,18.10
2018-07-22T03:40:17.707Z,18.08
2018-07-22T03:41:18.745Z,18.06
2018-07-22T03:42:20.375Z,18.06
2018-07-22T03:43:17.775Z,18.06
2018-07-22T03:44:17.795Z,18.08
2018-07-22T03:45:17.820Z,18.10
2018-07-22T03:46:17.840Z,18.10
2018-07-22T03:47:17.877Z,18.03
2018-07-22T03:48:17.885Z,18.03
2018-07-22T03:49:17.908Z,18.06
2018-07-22T03:50:17.932Z,17.99
2018-07-22T03:51:17.956Z,18.03
2018-07-22T03:52:17.978Z,17.99
2018-07-22T03:53:18.000Z,18.01
2018-07-22T03:54:18.021Z,18.03
2018-07-22T03:55:18.048Z,17.99
2018-07-22T03:56:18.069Z,18.01
2018-07-22T03:57:18.092Z,18.05
2018-07-22T03:58:18.115Z,18.05
2018-07-22T03:59:18.136Z,18.01
2018-07-22T04:00:18.157Z,18.01
2018-07-22T04:01:18.180Z,17.99
2018-07-22T04:02:18.200Z,17.96
2018-07-22T04:03:18.225Z,17.96
2018-07-22T04:04:18.249Z,17.98
2018-07-22T04:05:18.269Z,17.90
2018-07-22T04:06:18.291Z,17.84
2018-07-22T04:07:18.317Z,17.94
2018-07-22T04:08:18.335Z,17.88
2018-07-22T04:09:18.360Z,17.88
2018-07-22T04:10:18.408Z,17.92
2018-07-22T04:11:18.404Z,17.88
2018-07-22T04:12:18.428Z,17.94
2018-07-22T04:13:18.450Z,17.95
2018-07-22T04:14:18.474Z,17.95
2018-07-22T04:15:18.495Z,17.92
2018-07-22T04:16:18.518Z,17.90
2018-07-22T04:17:18.538Z,17.80
2018-07-22T04:18:18.562Z,17.86
2018-07-22T04:19:18.585Z,17.88
2018-07-22T04:20:18.608Z,17.87
2018-07-22T04:21:18.648Z,17.94
2018-07-22T04:22:18.652Z,17.94
2018-07-22T04:23:18.673Z,17.81
2018-07-22T04:24:18.695Z,17.83
2018-07-22T04:25:18.720Z,17.84
2018-07-22T04:26:18.744Z,17.77
2018-07-22T04:27:18.764Z,17.88
2018-07-22T04:28:18.787Z,17.94
2018-07-22T04:29:18.808Z,17.92
2018-07-22T04:30:18.830Z,17.88
2018-07-22T04:31:18.856Z,17.79
2018-07-22T04:32:18.875Z,17.86
2018-07-22T04:33:18.897Z,17.90
2018-07-22T04:34:18.920Z,17.94
2018-07-22T04:35:18.946Z,17.84
2018-07-22T04:36:18.965Z,17.90
2018-07-22T04:37:18.991Z,17.92
2018-07-22T04:38:19.013Z,17.98
2018-07-22T04:39:19.036Z,17.90
2018-07-22T04:40:19.054Z,17.88
2018-07-22T04:41:19.079Z,17.99
2018-07-22T04:42:19.103Z,17.88
2018-07-22T04:43:19.125Z,17.90
2018-07-22T04:44:19.144Z,17.92
2018-07-22T04:45:19.169Z,18.02
2018-07-22T04:46:19.191Z,18.02
2018-07-22T04:47:20.228Z,18.01
2018-07-22T04:48:19.237Z,18.02
2018-07-22T04:49:19.256Z,17.99
2018-07-22T04:50:19.283Z,17.98
2018-07-22T04:51:19.303Z,18.01
2018-07-22T04:52:19.323Z,18.08
2018-07-22T04:53:19.349Z,18.03
2018-07-22T04:54:19.372Z,18.13
2018-07-22T04:55:19.393Z,18.14
2018-07-22T04:56:19.416Z,18.32
2018-07-22T04:57:19.435Z,18.44
2018-07-22T04:58:19.461Z,18.41
2018-07-22T04:59:19.483Z,18.35
2018-07-22T05:00:19.503Z,18.38
2018-07-22T05:01:19.530Z,18.49
2018-07-22T05:02:19.752Z,18.53
2018-07-22T05:03:22.198Z,18.47
2018-07-22T05:04:19.799Z,18.51
2018-07-22T05:05:19.615Z,18.47
2018-07-22T05:06:19.641Z,18.56
2018-07-22T05:07:19.664Z,18.50
2018-07-22T05:08:19.686Z,18.65
2018-07-22T05:09:19.705Z,18.65
2018-07-22T05:10:19.728Z,18.69
2018-07-22T05:11:19.755Z,18.65
2018-07-22T05:12:19.776Z,18.78
2018-07-22T05:13:19.796Z,18.65
2018-07-22T05:14:19.823Z,18.72
2018-07-22T05:15:19.843Z,18.72
2018-07-22T05:16:19.869Z,18.78
2018-07-22T05:17:19.888Z,18.82
2018-07-22T05:18:21.331Z,18.91
2018-07-22T05:20:19.956Z,18.82
2018-07-22T05:21:19.981Z,18.86
2018-07-22T05:22:20.002Z,18.89
2018-07-22T05:23:20.028Z,18.86
2018-07-22T05:24:20.048Z,18.82
2018-07-22T05:25:20.071Z,18.82
2018-07-22T05:26:20.097Z,18.84
2018-07-22T05:27:20.119Z,18.89
2018-07-22T05:28:20.218Z,18.90
2018-07-22T05:29:22.853Z,19.06
2018-07-22T05:30:20.186Z,19.13
2018-07-22T05:31:20.211Z,19.00
2018-07-22T05:32:20.231Z,19.09
2018-07-22T05:33:20.254Z,18.93
2018-07-22T05:34:20.281Z,18.97
2018-07-22T05:35:20.307Z,18.99
2018-07-22T05:36:20.324Z,19.13
2018-07-22T05:37:20.347Z,19.07
2018-07-22T05:38:20.373Z,19.09
2018-07-22T05:39:20.394Z,19.27
2018-07-22T05:40:20.419Z,19.19
2018-07-22T05:41:20.443Z,19.16
2018-07-22T05:42:20.469Z,19.23
2018-07-22T05:43:20.490Z,19.28
2018-07-22T05:44:20.510Z,19.35
2018-07-22T05:45:20.537Z,19.46
2018-07-22T05:46:20.560Z,19.64
2018-07-22T05:47:20.581Z,19.85
2018-07-22T05:48:20.604Z,20.08
2018-07-22T05:49:20.630Z,20.05
2018-07-22T05:50:20.651Z,20.10
2018-07-22T05:51:20.675Z,20.02
2018-07-22T05:52:20.701Z,19.92
2018-07-22T05:53:20.726Z,20.05
2018-07-22T05:54:22.163Z,20.12
2018-07-22T05:55:23.393Z,20.20
2018-07-22T05:56:20.791Z,20.41
2018-07-22T05:59:06.017Z,20.27
2018-07-22T06:00:06.037Z,20.15
2018-07-22T06:01:06.060Z,20.26
2018-07-22T06:02:06.085Z,20.23
2018-07-22T06:03:06.557Z,20.07
2018-07-22T06:06:29.384Z,20.44
2018-07-22T06:07:29.406Z,20.61
2018-07-22T06:08:30.037Z,20.71
2018-07-22T06:09:32.075Z,21.00
2018-07-22T06:10:29.475Z,21.15
2018-07-22T06:11:29.502Z,21.22
2018-07-22T06:12:29.525Z,21.08
2018-07-22T06:13:29.547Z,21.18
2018-07-22T06:14:29.574Z,21.06
2018-07-22T06:15:29.599Z,21.00
2018-07-22T06:18:14.772Z,21.27
2018-07-22T06:19:14.799Z,21.37
2018-07-22T06:27:42.624Z,21.73
2018-07-22T06:28:42.647Z,21.85
2018-07-22T06:30:42.697Z,21.92
2018-07-22T06:31:42.721Z,22.05
2018-07-22T06:32:42.748Z,22.12
2018-07-22T06:33:42.773Z,22.33
2018-07-22T06:34:45.420Z,22.39
2018-07-22T06:35:45.448Z,22.44
2018-07-22T06:36:42.848Z,22.42
2018-07-22T06:37:46.307Z,22.49
2018-07-22T06:38:42.899Z,22.60
2018-07-22T06:39:42.921Z,22.67
2018-07-22T06:40:42.947Z,22.70
2018-07-22T06:41:42.971Z,22.71
2018-07-22T06:42:42.998Z,22.96
2018-07-22T06:43:43.024Z,23.19
2018-07-22T06:44:43.045Z,23.24
2018-07-22T06:45:43.072Z,23.38
2018-07-22T06:46:43.178Z,23.60
2018-07-22T06:47:43.120Z,23.52
2018-07-22T06:48:43.150Z,23.82
2018-07-22T06:49:43.171Z,23.74
2018-07-22T06:50:43.197Z,23.32
2018-07-22T06:51:43.222Z,23.18
2018-07-22T06:52:43.250Z,23.14
2018-07-22T06:53:43.272Z,23.06
2018-07-22T06:54:43.296Z,23.19
2018-07-22T06:55:43.325Z,23.55
2018-07-22T06:56:43.587Z,23.67
2018-07-22T06:57:43.374Z,23.85
2018-07-22T06:58:43.399Z,23.66
2018-07-22T06:59:43.427Z,23.74
2018-07-22T07:00:43.457Z,23.60
2018-07-22T07:01:43.478Z,23.53
2018-07-22T07:02:43.504Z,23.60
2018-07-22T07:03:43.528Z,23.60
2018-07-22T07:04:43.554Z,23.74
2018-07-22T07:05:43.582Z,24.02
2018-07-22T07:06:43.605Z,24.24
2018-07-22T07:07:43.633Z,24.27
2018-07-22T07:08:43.657Z,24.22
2018-07-22T07:09:43.687Z,24.34
2018-07-22T07:10:43.710Z,24.54
2018-07-22T07:11:43.737Z,24.52
2018-07-22T07:12:43.761Z,24.75
2018-07-22T07:13:43.790Z,24.93
2018-07-22T07:14:43.812Z,24.90
2018-07-22T07:15:43.839Z,25.08
2018-07-22T07:16:43.867Z,24.80
2018-07-22T07:17:43.893Z,25.01
2018-07-22T07:18:43.919Z,25.00
2018-07-22T07:19:43.948Z,25.15
2018-07-22T07:20:43.985Z,25.32
2018-07-22T07:21:44.002Z,25.01
2018-07-22T07:22:44.031Z,25.02
2018-07-22T07:23:44.056Z,25.12
2018-07-22T07:24:44.082Z,25.12
2018-07-22T07:25:44.107Z,25.24
2018-07-22T07:26:44.157Z,25.42
2018-07-22T07:27:44.161Z,25.51
2018-07-22T07:28:44.191Z,25.76
2018-07-22T07:29:44.215Z,25.94
2018-07-22T07:30:44.243Z,26.09
2018-07-22T07:31:44.273Z,26.16
2018-07-22T07:32:44.300Z,26.42
2018-07-22T07:33:44.328Z,26.49
2018-07-22T07:34:44.354Z,26.60
2018-07-22T07:35:44.382Z,26.52
2018-07-22T07:36:44.410Z,26.44
2018-07-22T07:37:44.439Z,26.54
2018-07-22T07:38:44.463Z,26.63
2018-07-22T07:39:44.492Z,26.81
2018-07-22T07:40:44.522Z,26.71
2018-07-22T07:42:44.574Z,26.59
2018-07-22T07:43:44.606Z,26.81
2018-07-22T07:44:44.637Z,26.79
2018-07-22T07:45:44.663Z,26.84
2018-07-22T07:46:44.693Z,27.01
2018-07-22T07:47:44.723Z,26.69
2018-07-22T07:48:44.751Z,26.64
2018-07-22T07:49:44.780Z,26.84
2018-07-22T07:50:44.811Z,26.90
2018-07-22T07:51:44.840Z,27.09
2018-07-22T07:52:44.873Z,27.30
2018-07-22T07:53:44.905Z,27.21
2018-07-22T07:54:44.932Z,27.15
2018-07-22T07:55:44.960Z,27.06
2018-07-22T07:56:44.992Z,27.12
2018-07-22T07:57:45.021Z,26.96
2018-07-22T07:58:45.051Z,26.76
2018-07-22T07:59:45.088Z,26.82
2018-07-22T08:00:45.115Z,26.96
2018-07-22T08:01:45.143Z,26.74
2018-07-22T08:02:45.175Z,26.64
2018-07-22T08:03:45.203Z,26.94
2018-07-22T08:04:45.235Z,27.00
2018-07-22T08:05:45.266Z,26.99
2018-07-22T08:06:45.299Z,27.11
2018-07-22T08:07:45.332Z,27.27
2018-07-22T08:08:45.363Z,27.52
2018-07-22T08:09:45.394Z,27.89
2018-07-22T08:10:45.422Z,27.91
2018-07-22T08:11:45.507Z,28.16
2018-07-22T08:12:45.481Z,27.98
2018-07-22T08:13:45.515Z,28.05
2018-07-22T08:14:45.543Z,28.27
2018-07-22T08:15:45.579Z,28.57
2018-07-22T08:16:45.607Z,28.72
2018-07-22T08:17:45.638Z,28.79
2018-07-22T08:18:45.667Z,28.94
2018-07-22T08:20:45.732Z,29.35
2018-07-22T08:21:45.873Z,29.33
2018-07-22T08:22:45.795Z,29.32
2018-07-22T08:23:45.824Z,29.05
2018-07-22T08:24:45.859Z,28.95
2018-07-22T08:25:45.888Z,28.82
2018-07-22T08:26:45.917Z,28.42
2018-07-22T08:27:45.950Z,28.61
2018-07-22T08:28:45.986Z,28.45
2018-07-22T08:29:46.015Z,28.49
2018-07-22T08:30:46.044Z,28.28
2018-07-22T08:31:46.079Z,27.79
2018-07-22T08:32:46.113Z,27.76
2018-07-22T08:33:46.141Z,28.01
2018-07-22T08:34:46.177Z,28.24
2018-07-22T08:35:46.207Z,28.61
2018-07-22T08:36:46.236Z,28.78
2018-07-22T08:37:46.270Z,29.26
2018-07-22T08:38:46.304Z,29.70
2018-07-22T08:39:46.333Z,29.87
2018-07-22T08:40:46.366Z,30.06
2018-07-22T08:41:46.398Z,29.88
2018-07-22T08:42:46.427Z,29.47
2018-07-22T08:43:46.459Z,29.60
2018-07-22T08:44:46.492Z,29.36
2018-07-22T08:45:46.531Z,29.60
2018-07-22T08:46:46.555Z,29.84
2018-07-22T08:47:46.647Z,29.88
2018-07-22T08:48:46.623Z,30.10
2018-07-22T08:49:46.652Z,30.48
2018-07-22T08:50:46.683Z,30.48
2018-07-22T09:02:39.625Z,31.16
2018-07-22T09:03:39.654Z,31.40
2018-07-22T09:04:39.687Z,31.21
2018-07-22T09:05:39.721Z,31.13
2018-07-22T09:06:39.752Z,31.58
2018-07-22T09:07:39.787Z,31.91
2018-07-22T09:08:39.818Z,31.65
2018-07-22T09:09:39.853Z,31.50
2018-07-22T09:10:39.885Z,31.40
2018-07-22T09:11:39.934Z,31.58
2018-07-22T09:12:39.948Z,31.41
2018-07-22T09:13:39.980Z,31.12
2018-07-22T09:14:40.008Z,31.78
2018-07-22T09:15:40.044Z,31.93
2018-07-22T09:16:40.072Z,32.20
2018-07-22T09:17:40.118Z,32.17
2018-07-22T09:18:40.142Z,31.87
2018-07-22T09:19:40.167Z,31.95
2018-07-22T09:20:40.200Z,31.90
2018-07-22T09:21:40.234Z,31.67
2018-07-22T09:22:40.265Z,31.67
2018-07-22T09:23:40.297Z,31.98
2018-07-22T09:24:40.326Z,31.95
2018-07-22T09:25:40.359Z,32.20
2018-07-22T09:26:40.390Z,32.45
2018-07-22T09:27:40.425Z,31.77
2018-07-22T09:28:40.454Z,31.62
2018-07-22T09:29:40.485Z,31.70
2018-07-22T09:30:40.520Z,31.58
2018-07-22T09:31:40.552Z,31.68
2018-07-22T09:32:40.581Z,32.25
2018-07-22T09:33:40.617Z,31.88
2018-07-22T09:34:40.647Z,31.38
2018-07-22T09:35:40.679Z,31.50
2018-07-22T09:36:40.711Z,32.01
2018-07-22T09:37:40.743Z,31.88
2018-07-22T09:39:44.845Z,31.75
2018-07-22T09:40:43.871Z,31.25
2018-07-22T09:41:40.871Z,31.19
2018-07-22T09:44:40.970Z,31.45
2018-07-22T09:45:40.998Z,31.91
2018-07-22T09:46:41.028Z,32.16
2018-07-22T09:47:41.063Z,32.37
2018-07-22T09:48:41.095Z,32.62
2018-07-22T09:49:41.124Z,32.74
2018-07-22T09:50:41.158Z,32.87
2018-07-22T09:51:41.188Z,33.41
2018-07-22T09:52:41.220Z,32.96
2018-07-22T09:53:41.278Z,32.96
2018-07-22T09:54:41.282Z,33.03
2018-07-22T09:55:41.314Z,33.11
2018-07-22T09:56:41.348Z,32.98
2018-07-22T09:57:41.380Z,32.69
2018-07-22T09:58:41.414Z,33.03
2018-07-22T09:59:41.446Z,33.08
2018-07-22T10:00:41.488Z,32.99
2018-07-22T10:01:41.510Z,33.01
2018-07-22T10:02:41.538Z,33.13
2018-07-22T10:03:41.574Z,32.75
2018-07-22T10:04:41.662Z,33.16
2018-07-22T10:05:41.637Z,33.18
2018-07-22T10:06:41.669Z,33.48
2018-07-22T10:07:41.700Z,33.41
2018-07-22T10:08:41.734Z,33.83
2018-07-22T10:09:41.765Z,33.87
2018-07-22T10:10:42.000Z,33.81
2018-07-22T10:11:41.829Z,34.05
2018-07-22T10:12:41.864Z,33.28
2018-07-22T10:13:41.894Z,33.34
2018-07-22T10:14:42.028Z,33.12
2018-07-22T10:15:41.955Z,33.20
2018-07-22T10:16:41.988Z,33.43
2018-07-22T10:17:42.034Z,33.32
2018-07-22T10:18:42.051Z,33.66
2018-07-22T10:19:42.083Z,33.61
2018-07-22T10:20:42.118Z,33.41
2018-07-22T10:21:42.151Z,33.69
2018-07-22T10:22:42.180Z,33.89
2018-07-22T10:23:42.212Z,33.83
2018-07-22T10:24:42.246Z,33.83
2018-07-22T10:25:42.277Z,34.00
2018-07-22T10:26:42.308Z,33.84
2018-07-22T10:27:42.343Z,33.65
2018-07-22T10:28:42.395Z,33.69
2018-07-22T10:29:42.409Z,33.96
2018-07-22T10:30:42.440Z,33.53
2018-07-22T10:31:42.473Z,33.48
2018-07-22T10:32:42.504Z,33.48
2018-07-22T10:33:42.535Z,33.59
2018-07-22T10:34:42.567Z,33.63
2018-07-22T10:35:42.601Z,33.68
2018-07-22T10:36:42.635Z,34.18
2018-07-22T10:37:42.663Z,34.64
2018-07-22T10:38:42.695Z,33.55
2018-07-22T10:39:42.729Z,33.36
2018-07-22T10:40:42.770Z,33.47
2018-07-22T10:41:42.793Z,33.37
2018-07-22T10:42:42.825Z,33.32
2018-07-22T10:43:42.860Z,33.40
2018-07-22T10:44:42.889Z,33.08
2018-07-22T10:45:42.924Z,33.40
2018-07-22T10:46:42.955Z,33.53
2018-07-22T10:47:42.989Z,33.63
2018-07-22T10:48:43.018Z,33.81
2018-07-22T10:49:43.052Z,33.62
2018-07-22T10:50:43.085Z,33.63
2018-07-22T10:51:43.117Z,33.63
2018-07-22T10:52:43.151Z,33.66
2018-07-22T10:53:43.182Z,33.58
2018-07-22T10:54:43.212Z,34.06
2018-07-22T10:55:43.247Z,34.21
2018-07-22T10:56:43.281Z,34.78
2018-07-22T10:57:43.312Z,34.87
2018-07-22T10:58:43.348Z,35.08
2018-07-22T10:59:43.378Z,34.87
2018-07-22T11:00:43.411Z,34.39
2018-07-22T11:01:43.443Z,34.52
2018-07-22T11:02:43.473Z,34.41
2018-07-22T11:03:43.505Z,34.91
2018-07-22T11:04:43.537Z,34.48
2018-07-22T11:05:43.571Z,34.43
2018-07-22T11:06:43.602Z,34.41
2018-07-22T11:07:43.636Z,34.02
2018-07-22T11:08:43.668Z,34.03
2018-07-22T11:09:43.702Z,33.87
2018-07-22T11:10:43.732Z,33.50
2018-07-22T11:11:43.769Z,33.13
2018-07-22T11:12:43.800Z,33.11
2018-07-22T11:13:43.831Z,33.18
2018-07-22T11:14:43.938Z,32.98
2018-07-22T11:15:43.896Z,33.21
2018-07-22T11:16:43.931Z,32.71
2018-07-22T11:17:43.964Z,32.93
2018-07-22T11:18:43.992Z,33.53
2018-07-22T11:19:44.025Z,34.03
2018-07-22T11:20:44.058Z,33.08
2018-07-22T11:21:44.091Z,32.47
2018-07-22T11:22:44.121Z,31.88
2018-07-22T11:23:44.158Z,31.40
2018-07-22T11:24:44.190Z,30.84
2018-07-22T11:25:44.222Z,30.37
2018-07-22T11:26:44.554Z,31.07
2018-07-22T11:27:44.284Z,31.58
2018-07-22T11:28:44.574Z,31.88
2018-07-22T11:29:44.351Z,32.32
2018-07-22T11:30:44.381Z,33.02
2018-07-22T11:31:44.415Z,33.16
2018-07-22T11:32:44.551Z,33.41
2018-07-22T11:33:44.475Z,33.84
2018-07-22T11:34:44.504Z,33.81
2018-07-22T11:35:44.535Z,33.66
2018-07-22T11:36:44.571Z,33.95
2018-07-22T11:37:44.604Z,34.00
2018-07-22T11:38:44.631Z,33.16
2018-07-22T11:39:44.665Z,32.16
2018-07-22T11:40:44.695Z,31.22
2018-07-22T11:41:45.514Z,30.97
2018-07-22T11:42:44.761Z,30.51
2018-07-22T11:43:44.817Z,30.26
2018-07-22T11:44:44.823Z,30.29
2018-07-22T11:45:44.858Z,30.10
2018-07-22T11:46:44.887Z,30.29
2018-07-22T11:47:44.914Z,30.10
2018-07-22T11:48:44.946Z,29.82
2018-07-22T11:49:44.977Z,29.79
2018-07-22T11:50:45.147Z,29.69
2018-07-22T11:51:45.041Z,29.47
2018-07-22T11:52:45.072Z,29.55
2018-07-22T11:53:45.100Z,29.60
2018-07-22T11:54:45.132Z,29.82
2018-07-22T11:55:45.160Z,29.95
2018-07-22T11:56:45.195Z,30.22
2018-07-22T11:57:45.221Z,30.49
2018-07-22T11:58:45.253Z,30.54
2018-07-22T11:59:45.284Z,30.59
2018-07-22T12:00:45.311Z,30.32
2018-07-22T12:01:45.342Z,30.59
2018-07-22T12:02:45.373Z,30.66
2018-07-22T12:03:45.403Z,30.56
2018-07-22T12:04:45.431Z,30.63
2018-07-22T12:05:45.465Z,30.59
2018-07-22T12:06:45.489Z,30.70
2018-07-22T12:07:45.543Z,30.24
2018-07-22T12:08:45.550Z,30.02
2018-07-22T12:09:45.579Z,29.76
2018-07-22T12:10:45.609Z,29.87
2018-07-22T12:11:45.637Z,29.87
2018-07-22T12:12:45.670Z,30.07
2018-07-22T12:13:45.696Z,30.11
2018-07-22T12:14:45.729Z,30.84
2018-07-22T12:15:45.756Z,31.77
2018-07-22T12:16:45.782Z,32.13
2018-07-22T12:17:45.812Z,32.35
2018-07-22T12:18:45.841Z,33.08
2018-07-22T12:19:45.873Z,33.47
2018-07-22T12:20:45.901Z,33.85
2018-07-22T12:21:45.930Z,34.32
2018-07-22T12:22:45.958Z,34.71
2018-07-22T12:23:45.988Z,34.66
2018-07-22T12:24:46.018Z,34.94
2018-07-22T12:25:46.051Z,34.39
2018-07-22T12:26:46.080Z,34.06
2018-07-22T12:27:46.118Z,33.99
2018-07-22T12:28:46.166Z,33.62
2018-07-22T12:29:46.168Z,32.64
2018-07-22T12:30:46.198Z,31.95
2018-07-22T12:31:46.229Z,31.18
2018-07-22T12:32:46.262Z,31.04
2018-07-22T12:33:46.291Z,30.69
2018-07-22T12:34:46.319Z,30.67
2018-07-22T12:35:46.350Z,30.40
2018-07-22T12:36:46.381Z,30.14
2018-07-22T12:37:46.410Z,30.09
2018-07-22T12:38:46.445Z,30.14
2018-07-22T12:39:46.523Z,29.81
2018-07-22T12:40:46.505Z,29.67
2018-07-22T12:41:46.532Z,29.73
2018-07-22T12:42:46.560Z,29.72
2018-07-22T12:43:46.591Z,29.48
2018-07-22T12:44:46.622Z,29.36
2018-07-22T12:45:46.653Z,29.29
2018-07-22T12:46:46.682Z,29.33
2018-07-22T12:47:46.710Z,29.52
2018-07-22T12:48:46.751Z,30.51
2018-07-22T12:49:46.780Z,30.89
2018-07-22T12:50:46.797Z,31.33
2018-07-22T12:51:46.827Z,31.68
2018-07-22T12:52:46.855Z,31.75
2018-07-22T12:53:46.948Z,31.28
2018-07-22T12:54:46.916Z,31.22
2018-07-22T12:55:46.947Z,31.19
2018-07-22T12:56:46.973Z,31.06
2018-07-22T12:57:47.003Z,30.75
2018-07-22T12:58:47.030Z,30.47
2018-07-22T12:59:47.058Z,30.29
2018-07-22T13:00:47.089Z,30.31
2018-07-22T13:01:47.117Z,30.37
2018-07-22T13:02:47.146Z,30.24
2018-07-22T13:03:47.177Z,30.22
2018-07-22T13:04:47.204Z,30.22
2018-07-22T13:05:47.231Z,30.07
2018-07-22T13:06:47.296Z,30.03
2018-07-22T13:07:47.288Z,29.97
2018-07-22T13:08:47.315Z,29.84
2018-07-22T13:09:47.345Z,29.77
2018-07-22T13:10:47.374Z,29.91
2018-07-22T13:11:47.401Z,30.22
2018-07-22T13:12:47.433Z,30.35
2018-07-22T13:13:47.462Z,30.31
2018-07-22T13:14:47.488Z,30.26
2018-07-22T13:15:47.518Z,30.24
2018-07-22T13:16:47.545Z,30.16
2018-07-22T13:17:47.573Z,30.07
2018-07-22T13:18:47.621Z,29.97
2018-07-22T13:19:47.629Z,29.73
2018-07-22T13:20:47.656Z,29.61
2018-07-22T13:21:47.685Z,29.79
2018-07-22T13:22:47.716Z,29.89
2018-07-22T13:23:47.742Z,30.10
2018-07-22T13:24:47.770Z,30.26
2018-07-22T13:25:47.800Z,30.37